createdAt,value
2022-09-25T00:00:09.897Z,9.49
2022-09-25T00:02:59.407Z,9.50
2022-09-25T00:05:30.847Z,9.50
2022-09-25T00:08:00.411Z,9.50
2022-09-25T00:10:33.847Z,9.50
2022-09-25T00:13:04.197Z,9.50
2022-09-25T00:19:53.437Z,9.49
2022-09-25T00:22:25.984Z,9.48
2022-09-25T00:24:56.556Z,9.47
2022-09-25T00:27:28.527Z,9.47
2022-09-25T00:30:00.132Z,9.48
2022-09-25T00:32:29.863Z,9.48
2022-09-25T00:34:59.124Z,9.50
2022-09-25T00:37:31.486Z,9.50
2022-09-25T00:40:02.383Z,9.50
2022-09-25T00:42:33.614Z,9.50
2022-09-25T00:45:16.179Z,9.50
2022-09-25T00:47:48.415Z,9.50
2022-09-25T00:50:22.104Z,9.51
2022-09-25T00:52:55.587Z,9.52
2022-09-25T00:55:25.781Z,9.50
2022-09-25T00:57:58.260Z,9.49
2022-09-25T01:00:30.617Z,9.49
2022-09-25T01:03:05.246Z,9.49
2022-09-25T01:05:38.536Z,9.49
2022-09-25T01:08:12.925Z,9.50
2022-09-25T01:10:42.881Z,9.53
2022-09-25T01:13:15.217Z,9.57
2022-09-25T01:16:11.940Z,9.61
2022-09-25T01:18:55.344Z,9.68
2022-09-25T01:21:48.430Z,9.72
2022-09-25T01:30:58.908Z,9.71
2022-09-25T01:34:01.639Z,9.70
2022-09-25T01:37:20.432Z,9.69
2022-09-25T01:40:08.336Z,9.71
2022-09-25T01:43:08.269Z,9.74
2022-09-25T01:46:03.555Z,9.78
2022-09-25T01:48:37.274Z,9.80
2022-09-25T01:51:26.212Z,9.83
2022-09-25T01:54:01.483Z,9.84
2022-09-25T01:56:38.044Z,9.85
2022-09-25T01:59:13.153Z,9.82
2022-09-25T02:01:44.611Z,9.81
2022-09-25T02:04:23.572Z,9.80
2022-09-25T02:06:59.099Z,9.80
2022-09-25T02:09:43.667Z,9.79
2022-09-25T02:12:24.003Z,9.79
2022-09-25T02:15:04.236Z,9.80
2022-09-25T02:18:01.325Z,9.81
2022-09-25T02:20:37.576Z,9.82
2022-09-25T02:23:32.573Z,9.81
2022-09-25T02:26:15.325Z,9.80
2022-09-25T02:28:46.261Z,9.78
2022-09-25T02:31:17.693Z,9.76
2022-09-25T02:33:47.915Z,9.75
2022-09-25T02:36:24.664Z,9.76
2022-09-25T02:38:56.242Z,9.75
2022-09-25T02:41:59.006Z,9.76
2022-09-25T02:44:51.325Z,9.77
2022-09-25T02:47:49.403Z,9.78
2022-09-25T02:50:47.724Z,9.78
2022-09-25T02:53:32.887Z,9.78
2022-09-25T02:56:13.086Z,9.78
2022-09-25T02:59:00.192Z,9.77
2022-09-25T03:01:32.965Z,9.78
2022-09-25T03:04:08.880Z,9.77
2022-09-25T03:06:40.715Z,9.76
2022-09-25T03:09:11.466Z,9.76
2022-09-25T03:11:44.140Z,9.75
2022-09-25T03:14:14.112Z,9.75
2022-09-25T03:16:52.276Z,9.76
2022-09-25T03:19:24.534Z,9.79
2022-09-25T03:21:57.282Z,9.80
2022-09-25T03:24:27.846Z,9.82
2022-09-25T03:26:58.266Z,9.85
2022-09-25T03:29:27.975Z,9.88
2022-09-25T03:32:00.306Z,9.91
2022-09-25T03:34:32.523Z,9.95
2022-09-25T03:37:01.920Z,9.98
2022-09-25T03:39:33.459Z,10.01
2022-09-25T03:42:06.302Z,10.04
2022-09-25T03:44:36.871Z,10.05
2022-09-25T03:47:07.623Z,10.05
2022-09-25T03:49:36.650Z,10.04
2022-09-25T03:52:09.857Z,10.04
2022-09-25T03:54:41.796Z,10.05
2022-09-25T03:57:13.233Z,10.06
2022-09-25T03:59:44.122Z,10.06
2022-09-25T04:02:16.112Z,10.06
2022-09-25T04:04:46.110Z,10.05
2022-09-25T04:07:17.821Z,10.05
2022-09-25T04:09:49.814Z,10.06
2022-09-25T04:12:20.874Z,10.06
2022-09-25T04:14:51.606Z,10.05
2022-09-25T04:17:50.554Z,10.07
2022-09-25T04:20:21.929Z,10.09
2022-09-25T04:22:51.000Z,10.11
2022-09-25T04:25:24.400Z,10.13
2022-09-25T04:27:58.832Z,10.15
2022-09-25T04:30:30.730Z,10.16
2022-09-25T04:33:18.677Z,10.17
2022-09-25T04:35:48.886Z,10.19
2022-09-25T04:38:20.994Z,10.20
2022-09-25T04:40:50.804Z,10.21
2022-09-25T04:43:22.281Z,10.20
2022-09-25T04:45:52.599Z,10.20
2022-09-25T04:48:25.809Z,10.20
2022-09-25T04:50:55.892Z,10.20
2022-09-25T04:53:28.472Z,10.19
2022-09-25T04:56:07.120Z,10.18
2022-09-25T04:58:44.106Z,10.18
2022-09-25T05:01:14.588Z,10.16
2022-09-25T05:03:45.352Z,10.16
2022-09-25T05:06:15.266Z,10.15
2022-09-25T05:08:47.327Z,10.14
2022-09-25T05:11:17.605Z,10.13
2022-09-25T05:13:51.719Z,10.12
2022-09-25T05:16:21.572Z,10.12
2022-09-25T05:18:54.413Z,10.11
2022-09-25T05:21:28.235Z,10.09
2022-09-25T05:23:57.840Z,10.08
2022-09-25T05:26:30.379Z,10.08
2022-09-25T05:28:59.449Z,10.09
2022-09-25T05:31:28.664Z,10.09
2022-09-25T05:33:59.964Z,10.10
2022-09-25T05:36:29.873Z,10.11
2022-09-25T05:39:00.529Z,10.12
2022-09-25T05:41:35.267Z,10.12
2022-09-25T05:44:10.196Z,10.14
2022-09-25T05:46:41.019Z,10.16
2022-09-25T05:49:11.880Z,10.18
2022-09-25T05:51:41.287Z,10.21
2022-09-25T05:54:11.811Z,10.25
2022-09-25T05:56:44.151Z,10.29
2022-09-25T05:59:15.503Z,10.36
2022-09-25T06:01:45.916Z,10.42
2022-09-25T06:04:15.878Z,10.49
2022-09-25T06:06:47.479Z,10.54
2022-09-25T06:09:18.501Z,10.59
2022-09-25T06:11:49.109Z,10.68
2022-09-25T06:14:19.221Z,10.78
2022-09-25T06:16:51.604Z,10.86
2022-09-25T06:19:21.429Z,10.92
2022-09-25T06:21:53.202Z,10.98
2022-09-25T06:24:25.757Z,11.00
2022-09-25T06:26:59.329Z,11.03
2022-09-25T06:29:28.902Z,11.04
2022-09-25T06:31:58.980Z,11.06
2022-09-25T06:34:31.167Z,11.05
2022-09-25T06:37:06.074Z,11.07
2022-09-25T06:39:36.503Z,11.10
2022-09-25T06:42:09.188Z,11.13
2022-09-25T06:44:39.714Z,11.18
2022-09-25T06:47:18.352Z,11.25
2022-09-25T06:49:49.595Z,11.30
2022-09-25T06:52:18.751Z,11.34
2022-09-25T06:54:49.039Z,11.38
2022-09-25T06:57:19.393Z,11.42
2022-09-25T06:59:50.445Z,11.44
2022-09-25T07:02:37.908Z,11.49
2022-09-25T07:05:08.160Z,11.54
2022-09-25T07:07:40.029Z,11.59
2022-09-25T07:10:09.049Z,11.64
2022-09-25T07:12:41.474Z,11.68
2022-09-25T07:15:36.164Z,11.77
2022-09-25T07:18:07.545Z,11.88
2022-09-25T07:20:38.176Z,11.95
2022-09-25T07:23:06.971Z,12.05
2022-09-25T07:25:36.563Z,12.14
2022-09-25T07:28:07.739Z,12.23
2022-09-25T07:30:36.959Z,12.33
2022-09-25T07:33:09.836Z,12.46
2022-09-25T07:35:40.347Z,12.62
2022-09-25T07:42:02.524Z,13.08
2022-09-25T07:44:37.900Z,13.35
2022-09-25T07:47:09.351Z,13.53
2022-09-25T07:49:40.585Z,13.77
2022-09-25T07:52:10.030Z,14.20
2022-09-25T07:54:44.396Z,14.94
2022-09-25T07:57:13.858Z,15.40
2022-09-25T07:59:43.418Z,15.87
2022-09-25T08:02:13.144Z,16.37
2022-09-25T08:04:45.294Z,17.19
2022-09-25T08:07:15.050Z,18.45
2022-09-25T08:09:45.956Z,20.54
2022-09-25T08:12:15.727Z,22.74
2022-09-25T08:14:47.143Z,24.66
2022-09-25T08:17:16.745Z,26.25
2022-09-25T08:19:49.884Z,27.11
2022-09-25T08:22:21.002Z,26.82
2022-09-25T08:24:53.616Z,26.87
2022-09-25T08:27:23.286Z,27.69
2022-09-25T08:29:57.675Z,29.20
2022-09-25T08:32:27.419Z,29.93
2022-09-25T08:34:57.294Z,30.52
2022-09-25T08:37:27.444Z,31.12
2022-09-25T08:39:56.806Z,31.46
2022-09-25T08:42:34.331Z,31.63
2022-09-25T08:45:31.499Z,31.71
2022-09-25T08:48:21.481Z,31.50
2022-09-25T08:50:53.999Z,31.44
2022-09-25T08:53:34.865Z,31.60
2022-09-25T08:56:16.274Z,32.15
2022-09-25T08:58:55.618Z,32.57
2022-09-25T09:01:59.487Z,32.88
2022-09-25T09:04:52.025Z,33.26
2022-09-25T09:07:27.808Z,33.38
2022-09-25T09:10:32.994Z,33.49
2022-09-25T09:13:17.894Z,33.82
2022-09-25T09:15:56.852Z,34.04
2022-09-25T09:18:30.979Z,33.09
2022-09-25T09:21:14.925Z,31.90
2022-09-25T09:24:06.496Z,31.04
2022-09-25T09:27:22.559Z,29.94
2022-09-25T09:30:14.548Z,28.63
2022-09-25T09:33:03.916Z,27.66
2022-09-25T09:35:37.035Z,26.57
2022-09-25T09:38:31.710Z,25.59
2022-09-25T09:41:17.628Z,24.78
2022-09-25T09:43:56.528Z,23.99
2022-09-25T09:46:37.818Z,23.64
2022-09-25T09:49:30.093Z,23.35
2022-09-25T09:52:17.809Z,23.20
2022-09-25T09:55:01.697Z,23.22
2022-09-25T09:57:40.336Z,23.52
2022-09-25T10:00:19.563Z,23.70
2022-09-25T10:02:56.077Z,24.50
2022-09-25T10:05:31.027Z,26.40
2022-09-25T10:08:01.768Z,27.83
2022-09-25T10:10:56.276Z,28.78
2022-09-25T10:13:33.186Z,29.34
2022-09-25T10:16:56.961Z,29.53
2022-09-25T10:19:30.287Z,29.52
2022-09-25T10:22:17.175Z,29.29
2022-09-25T10:24:53.953Z,29.07
2022-09-25T10:27:49.191Z,29.55
2022-09-25T10:30:23.327Z,29.25
2022-09-25T10:33:14.746Z,28.20
2022-09-25T10:35:46.758Z,27.80
2022-09-25T10:38:47.596Z,28.13
2022-09-25T10:41:20.782Z,28.20
2022-09-25T10:43:54.295Z,27.94
2022-09-25T10:46:56.537Z,27.27
2022-09-25T10:49:47.283Z,26.39
2022-09-25T10:52:22.678Z,25.10
2022-09-25T10:55:13.461Z,24.27
2022-09-25T10:57:48.082Z,23.75
2022-09-25T11:00:27.571Z,23.46
2022-09-25T11:03:04.831Z,23.52
2022-09-25T11:05:37.888Z,23.66
2022-09-25T11:08:08.259Z,23.83
2022-09-25T11:10:47.948Z,24.27
2022-09-25T11:13:40.444Z,25.16
2022-09-25T11:16:59.111Z,26.27
2022-09-25T11:19:32.141Z,27.23
2022-09-25T11:22:08.270Z,26.93
2022-09-25T11:25:03.591Z,26.11
2022-09-25T11:27:54.052Z,25.39
2022-09-25T11:30:24.850Z,25.07
2022-09-25T11:33:09.583Z,25.02
2022-09-25T11:36:11.505Z,24.93
2022-09-25T11:39:06.446Z,24.81
2022-09-25T11:41:42.036Z,24.95
2022-09-25T11:44:35.558Z,24.61
2022-09-25T11:47:25.838Z,24.08
2022-09-25T11:49:58.822Z,23.85
2022-09-25T11:52:40.487Z,24.72
2022-09-25T11:55:37.200Z,25.67
2022-09-25T11:58:38.073Z,26.54
2022-09-25T12:01:35.803Z,27.03
2022-09-25T12:04:32.873Z,27.42
2022-09-25T12:07:14.462Z,27.18
2022-09-25T12:10:04.455Z,27.46
2022-09-25T12:13:05.057Z,27.52
2022-09-25T12:15:39.521Z,26.29
2022-09-25T12:18:41.230Z,25.48
2022-09-25T12:21:37.445Z,24.54
2022-09-25T12:24:16.642Z,23.76
2022-09-25T12:27:07.985Z,23.17
2022-09-25T12:30:07.138Z,22.52
2022-09-25T12:32:56.545Z,21.98
2022-09-25T12:35:34.516Z,21.41
2022-09-25T12:38:24.336Z,20.89
2022-09-25T12:41:10.776Z,20.44
2022-09-25T12:44:18.035Z,20.15
2022-09-25T12:46:59.411Z,19.90
2022-09-25T12:49:50.180Z,19.77
2022-09-25T12:52:29.653Z,19.61
2022-09-25T12:55:07.132Z,19.49
2022-09-25T12:57:43.836Z,19.42
2022-09-25T13:00:23.585Z,19.34
2022-09-25T13:03:11.868Z,19.24
2022-09-25T13:06:00.312Z,19.22
2022-09-25T13:08:34.553Z,19.17
2022-09-25T13:11:33.364Z,19.11
2022-09-25T13:14:06.593Z,19.05
2022-09-25T13:16:38.251Z,18.98
2022-09-25T13:19:28.508Z,18.95
2022-09-25T13:22:26.027Z,18.91
2022-09-25T13:25:10.920Z,18.87
2022-09-25T13:27:44.226Z,18.84
2022-09-25T13:30:28.906Z,18.85
2022-09-25T13:33:04.486Z,18.84
2022-09-25T13:35:47.274Z,18.81
2022-09-25T13:38:40.271Z,18.80
2022-09-25T13:41:14.825Z,18.80
2022-09-25T13:43:44.716Z,18.80
2022-09-25T13:46:37.745Z,18.82
2022-09-25T13:49:36.559Z,18.79
2022-09-25T13:52:31.758Z,18.78
2022-09-25T13:55:21.537Z,18.74
2022-09-25T13:57:56.549Z,18.71
2022-09-25T14:00:37.585Z,18.61
2022-09-25T14:03:28.585Z,18.49
2022-09-25T14:05:59.538Z,18.45
2022-09-25T14:08:34.485Z,18.44
2022-09-25T14:11:05.930Z,18.37
2022-09-25T14:13:37.644Z,18.29
2022-09-25T14:16:18.250Z,18.18
2022-09-25T14:18:54.272Z,18.08
2022-09-25T14:21:29.803Z,17.96
2022-09-25T14:24:20.851Z,17.85
2022-09-25T14:26:53.646Z,17.72
2022-09-25T14:29:32.011Z,17.63
2022-09-25T14:32:54.101Z,17.56
2022-09-25T14:35:35.727Z,17.47
2022-09-25T14:38:36.765Z,17.39
2022-09-25T14:41:31.647Z,17.32
2022-09-25T14:44:35.396Z,17.26
2022-09-25T14:47:05.960Z,17.17
2022-09-25T14:49:40.846Z,17.11
2022-09-25T14:52:15.013Z,17.06
2022-09-25T14:54:47.712Z,17.00
2022-09-25T14:57:25.371Z,16.95
2022-09-25T15:00:02.971Z,16.88
2022-09-25T15:02:40.513Z,16.84
2022-09-25T15:05:49.222Z,16.79
2022-09-25T15:08:30.678Z,16.73
2022-09-25T15:11:10.997Z,16.67
2022-09-25T15:13:40.738Z,16.63
2022-09-25T15:17:18.183Z,16.59
2022-09-25T15:19:50.676Z,16.41
2022-09-25T15:22:23.936Z,16.28
2022-09-25T15:24:58.817Z,16.17
2022-09-25T15:27:31.839Z,16.09
2022-09-25T15:30:14.475Z,16.02
2022-09-25T15:32:49.341Z,15.97
2022-09-25T15:35:24.100Z,15.91
2022-09-25T15:38:13.656Z,15.90
2022-09-25T15:40:43.342Z,15.95
2022-09-25T15:43:16.667Z,16.01
2022-09-25T15:46:26.926Z,16.08
2022-09-25T15:48:59.088Z,16.13
2022-09-25T15:51:34.005Z,16.15
2022-09-25T15:54:37.279Z,16.16
2022-09-25T15:57:11.684Z,16.11
2022-09-25T16:00:05.374Z,16.05
2022-09-25T16:02:58.479Z,15.93
2022-09-25T16:05:34.996Z,15.78
2022-09-25T16:08:33.736Z,15.66
2022-09-25T16:11:24.030Z,15.49
2022-09-25T16:14:29.054Z,15.37
2022-09-25T16:17:17.578Z,15.32
2022-09-25T16:20:03.370Z,15.29
2022-09-25T16:22:50.928Z,15.26
2022-09-25T16:25:26.294Z,15.31
2022-09-25T16:28:05.469Z,15.34
2022-09-25T16:30:37.163Z,15.34
2022-09-25T16:33:31.161Z,15.30
2022-09-25T16:36:18.234Z,15.20
2022-09-25T16:39:08.743Z,15.12
2022-09-25T16:41:46.472Z,15.03
2022-09-25T16:44:20.820Z,14.95
2022-09-25T16:47:20.309Z,14.88
2022-09-25T16:50:07.540Z,14.83
2022-09-25T16:52:40.125Z,14.81
2022-09-25T16:55:27.849Z,14.83
2022-09-25T16:58:02.979Z,14.81
2022-09-25T17:00:44.023Z,14.76
2022-09-25T17:03:14.224Z,14.67
2022-09-25T17:05:44.793Z,14.57
2022-09-25T17:08:19.115Z,14.43
2022-09-25T17:10:52.182Z,14.32
2022-09-25T17:13:28.706Z,14.24
2022-09-25T17:15:59.666Z,14.18
2022-09-25T17:18:31.216Z,14.15
2022-09-25T17:21:08.528Z,14.13
2022-09-25T17:23:38.477Z,14.11
2022-09-25T17:26:23.616Z,14.13
2022-09-25T17:28:53.387Z,14.18
2022-09-25T17:31:24.295Z,14.12
2022-09-25T17:33:57.977Z,14.01
2022-09-25T17:36:29.667Z,13.94
2022-09-25T17:38:58.996Z,13.88
2022-09-25T17:41:33.978Z,13.86
2022-09-25T17:44:08.997Z,13.80
2022-09-25T17:46:41.560Z,13.78
2022-09-25T17:49:19.195Z,13.74
2022-09-25T17:51:50.377Z,13.73
2022-09-25T17:54:21.244Z,13.79
2022-09-25T17:56:51.946Z,13.84
2022-09-25T17:59:23.517Z,13.89
2022-09-25T18:01:55.307Z,13.91
2022-09-25T18:04:26.298Z,13.93
2022-09-25T18:06:58.156Z,13.95
2022-09-25T18:09:32.089Z,13.97
2022-09-25T18:12:02.171Z,13.96
2022-09-25T18:15:03.065Z,13.96
2022-09-25T18:17:36.196Z,13.95
2022-09-25T18:20:30.520Z,13.95
2022-09-25T18:23:01.447Z,13.97
2022-09-25T18:25:36.013Z,13.97
2022-09-25T18:28:10.607Z,13.97
2022-09-25T18:30:40.821Z,13.98
2022-09-25T18:33:12.767Z,13.95
2022-09-25T18:35:45.743Z,13.91
2022-09-25T18:38:17.588Z,13.88
2022-09-25T18:40:48.945Z,13.87
2022-09-25T18:43:20.763Z,13.80
2022-09-25T18:45:52.689Z,13.73
2022-09-25T18:48:23.037Z,13.67
2022-09-25T18:50:54.318Z,13.65
2022-09-25T18:53:28.377Z,13.59
2022-09-25T18:56:00.616Z,13.52
2022-09-25T18:58:32.340Z,13.47
2022-09-25T19:01:27.083Z,13.43
2022-09-25T19:04:08.258Z,13.35
2022-09-25T19:06:39.976Z,13.30
2022-09-25T19:09:16.421Z,13.28
2022-09-25T19:11:49.629Z,13.18
2022-09-25T19:14:25.028Z,13.07
2022-09-25T19:16:54.806Z,12.95
2022-09-25T19:19:33.478Z,12.89
2022-09-25T19:22:07.081Z,12.86
2022-09-25T19:24:37.876Z,12.83
2022-09-25T19:27:08.987Z,12.78
2022-09-25T19:29:46.507Z,12.70
2022-09-25T19:32:27.788Z,12.63
2022-09-25T19:35:00.376Z,12.57
2022-09-25T19:37:34.416Z,12.51
2022-09-25T19:40:23.703Z,12.46
2022-09-25T19:42:58.455Z,12.34
2022-09-25T19:45:32.979Z,12.33
2022-09-25T19:48:18.336Z,12.31
2022-09-25T19:51:01.667Z,12.28
2022-09-25T19:53:41.562Z,12.24
2022-09-25T19:56:17.536Z,12.20
2022-09-25T19:58:51.322Z,12.09
2022-09-25T20:01:25.209Z,11.99
2022-09-25T20:03:59.387Z,11.88
2022-09-25T20:06:31.348Z,11.81
2022-09-25T20:09:02.516Z,11.77
2022-09-25T20:11:35.067Z,11.73
2022-09-25T20:14:08.311Z,11.65
2022-09-25T20:17:09.561Z,11.60
2022-09-25T20:19:43.217Z,11.61
2022-09-25T20:22:12.930Z,11.63
2022-09-25T20:24:49.061Z,11.67
2022-09-25T20:27:23.249Z,11.69
2022-09-25T20:29:57.712Z,11.64
2022-09-25T20:32:28.369Z,11.62
2022-09-25T20:34:59.499Z,11.62
2022-09-25T20:37:29.929Z,11.63
2022-09-25T20:40:00.495Z,11.65
2022-09-25T20:42:34.770Z,11.66
2022-09-25T20:45:09.081Z,11.68
2022-09-25T20:47:45.856Z,11.68
2022-09-25T20:50:17.381Z,11.68
2022-09-25T20:52:48.955Z,11.69
2022-09-25T20:55:19.135Z,11.65
2022-09-25T20:57:48.406Z,11.68
2022-09-25T21:00:19.649Z,11.71
2022-09-25T21:02:51.846Z,11.71
2022-09-25T21:05:22.232Z,11.68
2022-09-25T21:07:52.012Z,11.70
2022-09-25T21:10:24.034Z,11.67
2022-09-25T21:12:56.878Z,11.59
2022-09-25T21:15:29.147Z,11.59
2022-09-25T21:17:59.230Z,11.58
2022-09-25T21:20:32.866Z,11.52
2022-09-25T21:23:02.792Z,11.48
2022-09-25T21:25:35.114Z,11.44
2022-09-25T21:28:08.695Z,11.40
2022-09-25T21:30:43.058Z,11.29
2022-09-25T21:33:15.825Z,11.23
2022-09-25T21:35:50.466Z,11.17
2022-09-25T21:38:20.906Z,11.15
2022-09-25T21:40:50.888Z,11.19
2022-09-25T21:43:21.145Z,11.24
2022-09-25T21:45:55.193Z,11.29
2022-09-25T21:48:27.930Z,11.33
2022-09-25T21:51:02.794Z,11.36
2022-09-25T21:53:34.565Z,11.33
2022-09-25T21:56:09.932Z,11.27
2022-09-25T21:58:40.782Z,11.16
2022-09-25T22:01:32.631Z,11.11
2022-09-25T22:04:22.796Z,11.07
2022-09-25T22:06:54.342Z,11.04
2022-09-25T22:09:26.347Z,10.99
2022-09-25T22:12:00.170Z,10.92
2022-09-25T22:14:31.466Z,10.91
2022-09-25T22:17:01.839Z,10.90
2022-09-25T22:19:33.200Z,10.90
2022-09-25T22:22:03.838Z,10.88
2022-09-25T22:24:34.842Z,10.87
2022-09-25T22:27:05.386Z,10.84
2022-09-25T22:29:37.765Z,10.79
2022-09-25T22:32:09.192Z,10.73
2022-09-25T22:34:42.325Z,10.67
2022-09-25T22:37:14.839Z,10.58
2022-09-25T22:39:47.004Z,10.43
2022-09-25T22:42:20.553Z,10.38
2022-09-25T22:44:53.621Z,10.34
2022-09-25T22:47:24.833Z,10.30
2022-09-25T22:49:57.902Z,10.26
2022-09-25T22:52:29.092Z,10.18
2022-09-25T22:58:12.559Z,10.08
2022-09-25T23:00:47.967Z,10.05
2022-09-25T23:03:19.777Z,9.92
2022-09-25T23:05:53.171Z,9.75
2022-09-25T23:08:26.979Z,9.58
2022-09-25T23:11:08.727Z,9.46
2022-09-25T23:13:43.197Z,9.33
2022-09-25T23:20:21.122Z,8.97
2022-09-25T23:22:53.390Z,8.84
2022-09-25T23:25:24.192Z,8.72
2022-09-25T23:27:56.986Z,8.64
2022-09-25T23:30:28.097Z,8.58
2022-09-25T23:33:00.855Z,8.55
2022-09-25T23:35:34.732Z,8.56
2022-09-25T23:38:04.980Z,8.55
2022-09-25T23:40:38.395Z,8.55
2022-09-25T23:43:10.569Z,8.60
2022-09-25T23:45:42.551Z,8.63
2022-09-25T23:48:15.382Z,8.67
2022-09-25T23:50:45.759Z,8.69
2022-09-25T23:53:16.446Z,8.71
2022-09-25T23:55:47.683Z,8.70
2022-09-25T23:58:19.309Z,8.59
